Time;durP1;ratioP1;P1;durP2;ratioP2;P2;SDS_P1;SDS_P2;PMS_P1;PMS_P2;Temp;Humidity;BMP_temperature;BMP_pressure;BME280_temperature;BME280_humidity;BME280_pressure;Samples;Min_cycle;Max_cycle;Signal;HPM_P1;HPM_P2
2021/03/02 00:02:09;;;;;;;8.43;5.77;;;3.20;99.90;;;;;;5072073;28;20735;-56
2021/03/02 00:04:35;;;;;;;7.53;4.90;;;3.20;99.90;;;;;;5072380;28;20223;-56
2021/03/02 00:07:02;;;;;;;6.87;5.10;;;3.30;99.90;;;;;;5072515;28;20212;-56
2021/03/02 00:09:28;;;;;;;7.30;5.30;;;3.40;99.90;;;;;;5072269;28;20209;-56
2021/03/02 00:11:54;;;;;;;7.60;5.10;;;3.50;99.90;;;;;;5072623;28;20258;-56
2021/03/02 00:14:21;;;;;;;7.83;5.43;;;3.60;99.90;;;;;;5072079;28;20201;-56
2021/03/02 00:16:55;;;;;;;8.17;5.60;;;3.70;99.90;;;;;;5072186;28;20239;-56
2021/03/02 00:19:28;;;;;;;8.03;5.47;;;3.70;99.90;;;;;;5072389;28;20228;-56
2021/03/02 00:22:04;;;;;;;9.27;5.33;;;3.70;99.90;;;;;;5072265;28;20591;-56
2021/03/02 00:24:35;;;;;;;7.73;5.60;;;3.60;99.90;;;;;;5071265;28;20303;-55
2021/03/02 00:27:04;;;;;;;8.97;5.70;;;3.60;99.90;;;;;;5071916;28;20209;-56
2021/03/02 00:29:31;;;;;;;10.40;5.67;;;3.60;99.90;;;;;;5072011;28;20413;-56
2021/03/02 00:31:58;;;;;;;8.67;6.20;;;3.40;99.90;;;;;;5070223;28;20259;-56
2021/03/02 00:34:24;;;;;;;9.87;6.60;;;3.40;99.90;;;;;;5071599;28;20204;-58
2021/03/02 00:36:51;;;;;;;10.07;6.60;;;3.40;99.90;;;;;;5071897;28;20324;-58
2021/03/02 00:39:17;;;;;;;9.63;5.83;;;3.40;99.90;;;;;;5071691;28;20201;-59
2021/03/02 00:41:44;;;;;;;8.67;5.50;;;3.40;99.90;;;;;;5071852;28;20676;-58
2021/03/02 00:44:11;;;;;;;9.40;6.10;;;3.40;99.90;;;;;;5072628;28;20255;-58
2021/03/02 00:46:37;;;;;;;11.70;6.33;;;3.30;99.90;;;;;;5072355;28;20210;-59
2021/03/02 00:49:04;;;;;;;10.53;6.10;;;3.20;99.90;;;;;;5071954;28;20205;-58
2021/03/02 00:51:31;;;;;;;8.20;5.83;;;3.20;99.90;;;;;;5071709;28;20212;-57
2021/03/02 00:53:57;;;;;;;8.33;5.57;;;3.10;99.90;;;;;;5071605;28;20241;-57
2021/03/02 00:56:23;;;;;;;10.47;5.77;;;3.00;99.90;;;;;;5071687;28;20212;-57
2021/03/02 00:58:49;;;;;;;8.73;5.63;;;2.90;99.90;;;;;;5071516;28;20208;-56
2021/03/02 01:01:16;;;;;;;8.40;5.57;;;2.90;99.90;;;;;;5071601;28;20255;-56
2021/03/02 01:03:42;;;;;;;7.53;5.33;;;2.80;99.90;;;;;;5071475;28;20229;-57
2021/03/02 01:06:09;;;;;;;7.27;5.30;;;2.90;99.90;;;;;;5071480;28;20212;-56
2021/03/02 01:08:35;;;;;;;8.90;6.17;;;2.80;99.90;;;;;;5071015;28;20297;-56
2021/03/02 01:11:02;;;;;;;6.63;4.83;;;2.80;99.90;;;;;;5071162;28;20295;-56
2021/03/02 01:13:28;;;;;;;8.77;6.10;;;2.70;99.90;;;;;;5071267;28;20221;-56
2021/03/02 01:15:54;;;;;;;12.40;7.87;;;2.50;99.90;;;;;;5071280;28;20205;-56
2021/03/02 01:18:20;;;;;;;12.67;6.73;;;2.60;99.90;;;;;;5070971;28;20228;-56
2021/03/02 01:20:46;;;;;;;8.00;5.40;;;2.70;99.90;;;;;;5071549;28;20209;-57
2021/03/02 01:23:13;;;;;;;8.93;5.70;;;2.70;99.90;;;;;;5071014;28;20224;-57
2021/03/02 01:25:39;;;;;;;8.07;5.73;;;2.70;99.90;;;;;;5071062;28;20643;-57
2021/03/02 01:28:06;;;;;;;7.47;5.30;;;2.80;99.90;;;;;;5070995;28;20227;-57
2021/03/02 01:30:33;;;;;;;8.40;5.73;;;2.90;99.90;;;;;;5070896;28;20669;-57
2021/03/02 01:32:59;;;;;;;8.33;4.93;;;2.90;99.90;;;;;;5070735;28;20769;-57
2021/03/02 01:35:25;;;;;;;7.80;5.10;;;2.80;99.90;;;;;;5070386;28;20318;-57
2021/03/02 01:37:52;;;;;;;9.30;5.90;;;2.80;99.90;;;;;;5070699;28;20220;-57
2021/03/02 01:40:19;;;;;;;8.67;5.53;;;2.80;99.90;;;;;;5071033;28;20807;-57
2021/03/02 01:42:46;;;;;;;8.03;5.50;;;2.80;99.90;;;;;;5070828;28;20235;-57
2021/03/02 01:45:16;;;;;;;9.33;5.30;;;2.90;99.90;;;;;;5070698;28;20695;-57
2021/03/02 01:47:43;;;;;;;7.30;5.33;;;2.90;99.90;;;;;;5070792;28;20201;-57
2021/03/02 01:50:11;;;;;;;10.53;5.33;;;2.80;99.90;;;;;;5070784;28;20213;-57
2021/03/02 01:52:38;;;;;;;8.67;5.50;;;2.70;99.90;;;;;;5070441;28;20232;-57
2021/03/02 01:55:06;;;;;;;7.90;5.53;;;2.50;99.90;;;;;;5070754;28;20250;-57
2021/03/02 01:57:34;;;;;;;8.80;5.60;;;2.40;99.90;;;;;;5070516;28;20225;-57
2021/03/02 02:00:03;;;;;;;7.63;5.23;;;2.30;99.90;;;;;;5070795;28;20205;-56
2021/03/02 02:02:37;;;;;;;9.13;5.57;;;2.30;99.90;;;;;;5070730;28;20336;-56
2021/03/02 02:05:06;;;;;;;8.77;5.60;;;2.40;99.90;;;;;;5071065;28;20212;-56
2021/03/02 02:07:36;;;;;;;8.50;5.17;;;2.40;99.90;;;;;;5070873;28;20204;-56
2021/03/02 02:10:09;;;;;;;8.57;5.80;;;2.40;99.90;;;;;;5071210;28;20208;-56
2021/03/02 02:12:39;;;;;;;9.23;5.83;;;2.40;99.90;;;;;;5070696;28;20244;-56
2021/03/02 02:15:09;;;;;;;8.60;5.50;;;2.50;99.90;;;;;;5070549;28;20208;-56
2021/03/02 02:17:40;;;;;;;7.07;4.93;;;2.50;99.90;;;;;;5070644;28;20225;-57
2021/03/02 02:20:09;;;;;;;8.27;5.20;;;2.60;99.90;;;;;;5071099;28;20205;-57
2021/03/02 02:23:02;;;;;;;8.70;5.70;;;2.60;99.90;;;;;;5070673;28;20240;-56
2021/03/02 02:25:40;;;;;;;8.67;5.50;;;2.70;99.90;;;;;;5070547;28;20243;-56
2021/03/02 02:28:08;;;;;;;7.50;5.20;;;2.70;99.90;;;;;;5070837;28;20193;-56
2021/03/02 02:30:38;;;;;;;6.63;4.40;;;2.60;99.90;;;;;;5070546;28;20690;-56
2021/03/02 02:33:05;;;;;;;8.60;4.80;;;2.50;99.90;;;;;;5070711;28;20605;-56
2021/03/02 02:35:32;;;;;;;9.63;6.13;;;2.40;99.90;;;;;;5070446;28;20265;-56
2021/03/02 02:38:01;;;;;;;9.77;4.83;;;2.40;99.90;;;;;;5070378;28;20221;-56
2021/03/02 02:40:28;;;;;;;7.90;5.40;;;2.50;99.90;;;;;;5070373;28;20278;-56
2021/03/02 02:42:57;;;;;;;7.67;5.30;;;2.50;99.90;;;;;;5070517;28;20225;-56
2021/03/02 02:45:25;;;;;;;7.97;5.27;;;2.40;99.90;;;;;;5070250;28;20205;-57
2021/03/02 02:47:52;;;;;;;6.53;4.40;;;2.50;99.90;;;;;;5072737;28;20208;-59
2021/03/02 02:50:18;;;;;;;6.43;4.50;;;2.50;99.90;;;;;;5074001;28;20205;-56
2021/03/02 02:52:46;;;;;;;7.40;5.10;;;2.50;99.90;;;;;;5082925;22;20234;-67
2021/03/02 02:55:15;;;;;;;7.10;4.70;;;2.50;99.90;;;;;;5054809;28;20603;-67
2021/03/02 02:57:45;;;;;;;7.60;5.27;;;2.60;99.90;;;;;;5055064;28;20345;-68
2021/03/02 03:00:12;;;;;;;7.90;5.23;;;2.60;99.90;;;;;;5056317;28;20205;-68
2021/03/02 03:02:44;;;;;;;8.07;5.60;;;2.70;99.90;;;;;;5055211;28;20229;-68
2021/03/02 03:05:15;;;;;;;7.43;5.33;;;2.80;99.90;;;;;;5053580;28;20201;-67
2021/03/02 03:07:44;;;;;;;8.07;5.33;;;2.80;99.90;;;;;;5053370;28;20205;-67
2021/03/02 03:10:12;;;;;;;7.20;4.93;;;2.70;99.90;;;;;;5053600;28;20213;-66
2021/03/02 03:12:41;;;;;;;8.77;4.87;;;2.70;99.90;;;;;;5053308;28;20747;-66
2021/03/02 03:15:10;;;;;;;6.90;4.77;;;2.70;99.90;;;;;;5053489;28;20205;-66
2021/03/02 03:17:41;;;;;;;6.93;4.90;;;2.50;99.90;;;;;;5053025;28;20746;-67
2021/03/02 03:20:12;;;;;;;7.97;4.87;;;2.50;99.90;;;;;;5053038;28;20202;-66
2021/03/02 03:22:39;;;;;;;7.73;5.40;;;2.50;99.90;;;;;;5053296;28;20229;-66
2021/03/02 03:25:08;;;;;;;7.60;5.70;;;2.60;99.90;;;;;;5053154;28;20209;-66
2021/03/02 03:27:40;;;;;;;6.90;5.23;;;2.70;99.90;;;;;;5053016;28;20202;-67
2021/03/02 03:30:08;;;;;;;10.00;6.20;;;2.80;99.90;;;;;;5053222;28;20214;-66
2021/03/02 03:32:36;;;;;;;9.97;5.70;;;2.70;99.90;;;;;;5053064;28;20230;-66
2021/03/02 03:35:04;;;;;;;8.23;5.63;;;2.70;99.90;;;;;;5053047;28;20216;-67
2021/03/02 03:37:31;;;;;;;8.47;5.77;;;2.70;99.90;;;;;;5052907;28;20222;-67
2021/03/02 03:39:57;;;;;;;60.93;48.73;;;2.80;99.90;;;;;;5052686;28;20213;-66
2021/03/02 03:42:23;;;;;;;8.93;5.87;;;2.80;99.90;;;;;;5053347;28;20202;-66
2021/03/02 03:44:50;;;;;;;7.70;5.80;;;2.80;99.90;;;;;;5053191;28;20209;-67
2021/03/02 03:47:16;;;;;;;8.37;5.80;;;2.80;99.90;;;;;;5053754;28;20210;-66
2021/03/02 03:49:42;;;;;;;10.07;6.33;;;2.80;99.90;;;;;;5052859;28;20305;-66
2021/03/02 03:52:11;;;;;;;9.47;6.43;;;2.80;99.90;;;;;;5052926;28;20205;-66
2021/03/02 03:54:39;;;;;;;11.50;7.67;;;2.90;99.90;;;;;;5052328;28;20214;-66
2021/03/02 03:57:06;;;;;;;8.73;5.73;;;2.80;99.90;;;;;;5052870;28;20225;-66
2021/03/02 03:59:34;;;;;;;11.63;6.77;;;2.80;99.90;;;;;;5052261;28;20300;-68
2021/03/02 04:02:01;;;;;;;8.57;5.17;;;2.90;99.90;;;;;;5052638;28;20208;-66
2021/03/02 04:04:28;;;;;;;6.87;5.10;;;2.90;99.90;;;;;;5052289;28;20359;-68
2021/03/02 04:06:56;;;;;;;7.43;5.40;;;3.00;99.90;;;;;;5052301;28;20205;-66
2021/03/02 04:09:22;;;;;;;7.43;5.10;;;3.00;99.90;;;;;;5052800;28;20210;-67
2021/03/02 04:11:49;;;;;;;9.10;5.43;;;2.90;99.90;;;;;;5052152;28;20213;-67
2021/03/02 04:14:16;;;;;;;7.10;5.10;;;2.90;99.90;;;;;;5052278;28;20713;-66
2021/03/02 04:16:43;;;;;;;9.47;5.40;;;2.90;99.90;;;;;;5052205;28;20209;-67
2021/03/02 04:19:09;;;;;;;7.10;5.37;;;2.90;99.90;;;;;;5052106;28;20347;-66
2021/03/02 04:21:35;;;;;;;10.40;6.03;;;2.90;99.90;;;;;;5051943;28;20548;-67
2021/03/02 04:24:02;;;;;;;9.87;6.03;;;2.90;99.90;;;;;;5051868;28;20237;-67
2021/03/02 04:26:28;;;;;;;9.70;5.90;;;2.90;99.90;;;;;;5051930;28;20213;-67
2021/03/02 04:28:55;;;;;;;9.40;6.30;;;2.90;99.90;;;;;;5051740;28;20671;-67
2021/03/02 04:31:21;;;;;;;9.13;5.33;;;2.90;99.90;;;;;;5052112;28;20552;-67
2021/03/02 04:33:47;;;;;;;9.10;5.33;;;2.90;99.90;;;;;;5051951;28;20226;-67
2021/03/02 04:36:13;;;;;;;8.30;5.50;;;2.90;99.90;;;;;;5051906;28;20214;-67
2021/03/02 04:38:39;;;;;;;10.87;6.20;;;2.80;99.90;;;;;;5051608;28;20232;-67
2021/03/02 04:41:06;;;;;;;10.63;5.40;;;2.80;99.90;;;;;;5051818;28;20205;-66
2021/03/02 04:43:32;;;;;;;9.50;5.30;;;2.70;99.90;;;;;;5051521;28;20244;-68
2021/03/02 04:45:59;;;;;;;11.43;6.87;;;2.80;99.90;;;;;;5052032;28;20202;-68
2021/03/02 04:48:25;;;;;;;9.33;6.80;;;2.80;99.90;;;;;;5052194;28;20197;-68
2021/03/02 04:50:51;;;;;;;10.13;6.50;;;2.90;99.90;;;;;;5051832;28;20208;-68
2021/03/02 04:53:18;;;;;;;20.10;9.20;;;2.90;99.90;;;;;;5051851;28;20435;-68
2021/03/02 04:55:44;;;;;;;12.33;7.17;;;2.90;99.90;;;;;;5051375;28;20567;-68
2021/03/02 04:58:10;;;;;;;12.00;7.00;;;2.90;99.90;;;;;;5051465;28;20283;-66
2021/03/02 05:00:36;;;;;;;10.30;7.07;;;2.90;99.90;;;;;;5051426;28;20202;-68
2021/03/02 05:03:03;;;;;;;12.23;7.43;;;3.00;99.90;;;;;;5051424;28;20225;-67
2021/03/02 05:05:30;;;;;;;12.00;7.60;;;3.00;99.90;;;;;;5051173;28;20228;-66
2021/03/02 05:07:56;;;;;;;9.43;6.30;;;3.00;99.90;;;;;;5051297;28;20205;-66
2021/03/02 05:10:22;;;;;;;12.53;6.90;;;3.00;99.90;;;;;;5051128;28;20209;-68
2021/03/02 05:12:48;;;;;;;9.30;6.67;;;2.90;99.90;;;;;;5050842;28;20732;-68
2021/03/02 05:15:15;;;;;;;11.30;7.87;;;3.00;99.90;;;;;;5050876;28;20213;-68
2021/03/02 05:17:41;;;;;;;11.63;7.43;;;3.00;99.90;;;;;;5050853;28;20221;-68
2021/03/02 05:20:10;;;;;;;9.30;6.63;;;3.00;99.90;;;;;;5051053;28;20292;-66
2021/03/02 05:22:36;;;;;;;9.83;6.77;;;3.00;99.90;;;;;;5050931;28;20290;-66
2021/03/02 05:25:03;;;;;;;10.83;7.27;;;3.00;99.90;;;;;;5050707;28;20212;-66
2021/03/02 05:27:29;;;;;;;15.10;7.80;;;3.00;99.90;;;;;;5050985;28;20210;-66
2021/03/02 05:29:56;;;;;;;12.10;7.67;;;3.00;99.90;;;;;;5051587;28;20201;-66
2021/03/02 05:32:22;;;;;;;10.90;7.70;;;3.00;99.90;;;;;;5051686;28;20263;-66
2021/03/02 05:34:48;;;;;;;12.87;7.90;;;2.90;99.90;;;;;;5051939;28;20263;-66
2021/03/02 05:37:15;;;;;;;13.83;8.07;;;2.90;99.90;;;;;;5051404;28;20229;-66
2021/03/02 05:39:41;;;;;;;12.50;8.20;;;2.80;99.90;;;;;;5050860;28;20674;-66
2021/03/02 05:42:08;;;;;;;13.30;8.13;;;2.80;99.90;;;;;;5051063;28;20205;-66
2021/03/02 05:44:34;;;;;;;12.03;7.80;;;2.90;99.90;;;;;;5051604;28;20216;-66
2021/03/02 05:47:01;;;;;;;11.20;7.87;;;2.90;99.90;;;;;;5051190;28;20212;-66
2021/03/02 05:49:28;;;;;;;19.13;11.17;;;2.90;99.90;;;;;;5050957;28;20205;-66
2021/03/02 05:51:54;;;;;;;16.03;10.10;;;2.90;99.90;;;;;;5050879;28;20284;-68
2021/03/02 05:54:22;;;;;;;14.57;9.53;;;2.80;99.90;;;;;;5050631;28;20248;-66
2021/03/02 05:56:48;;;;;;;16.20;9.53;;;2.80;99.90;;;;;;5051117;28;20259;-66
2021/03/02 05:59:14;;;;;;;15.47;8.30;;;2.80;99.90;;;;;;5050732;28;20229;-67
2021/03/02 06:01:40;;;;;;;17.83;9.87;;;2.90;99.90;;;;;;5050816;28;20209;-66
2021/03/02 06:04:12;;;;;;;26.83;15.90;;;2.90;99.90;;;;;;5050554;28;20351;-66
2021/03/02 06:06:38;;;;;;;18.73;11.30;;;2.90;99.90;;;;;;5050576;28;20245;-66
2021/03/02 06:09:05;;;;;;;18.93;11.27;;;3.00;99.90;;;;;;5050974;28;20212;-67
2021/03/02 06:11:34;;;;;;;13.13;8.13;;;3.10;99.90;;;;;;5050763;28;20271;-67
2021/03/02 06:14:19;;;;;;;14.73;9.00;;;3.10;99.90;;;;;;5051048;28;20270;-66
2021/03/02 06:16:47;;;;;;;17.40;9.90;;;3.10;99.90;;;;;;5050689;28;20263;-66
2021/03/02 06:19:13;;;;;;;15.07;9.63;;;3.10;99.90;;;;;;5050367;28;20232;-67
2021/03/02 06:21:39;;;;;;;15.23;10.60;;;3.20;99.90;;;;;;5051695;28;20213;-66
2021/03/02 06:24:06;;;;;;;18.13;10.30;;;3.20;99.90;;;;;;5054199;28;20717;-67
2021/03/02 06:26:34;;;;;;;18.67;9.53;;;3.30;99.90;;;;;;5054576;28;20206;-67
2021/03/02 06:29:13;;;;;;;16.23;9.77;;;3.40;99.90;;;;;;5054350;28;20247;-67
2021/03/02 06:31:41;;;;;;;17.27;11.90;;;3.60;99.90;;;;;;5054653;28;20291;-67
2021/03/02 06:34:10;;;;;;;12.93;8.10;;;3.60;99.90;;;;;;5054072;28;20225;-67
2021/03/02 06:36:37;;;;;;;20.23;11.93;;;3.70;99.90;;;;;;5054351;28;20201;-66
2021/03/02 06:39:25;;;;;;;15.40;9.17;;;3.70;99.90;;;;;;5053928;28;20617;-67
2021/03/02 06:41:53;;;;;;;14.27;7.57;;;3.70;99.90;;;;;;5054099;28;20209;-67
2021/03/02 06:44:19;;;;;;;15.77;7.90;;;3.70;99.90;;;;;;5054173;28;20226;-67
2021/03/02 06:46:46;;;;;;;14.73;8.50;;;3.80;99.90;;;;;;5054093;28;20213;-67
2021/03/02 06:49:12;;;;;;;14.50;8.07;;;3.90;99.90;;;;;;5053699;28;20730;-67
2021/03/02 06:51:39;;;;;;;19.60;12.40;;;4.20;99.90;;;;;;5053957;28;20205;-67
2021/03/02 06:54:07;;;;;;;16.40;7.83;;;5.10;99.90;;;;;;5054090;28;20395;-67
2021/03/02 06:56:34;;;;;;;14.83;8.30;;;6.30;99.90;;;;;;5053727;28;20295;-67
2021/03/02 06:59:14;;;;;;;13.87;8.80;;;7.60;99.90;;;;;;5053932;28;20228;-67
2021/03/02 07:01:42;;;;;;;14.10;8.77;;;8.80;99.90;;;;;;5053581;28;20586;-66
2021/03/02 07:04:09;;;;;;;21.87;13.13;;;9.90;99.90;;;;;;5053524;28;20256;-67
2021/03/02 07:06:37;;;;;;;13.50;8.23;;;10.70;98.20;;;;;;5053536;28;20210;-66
2021/03/02 07:09:04;;;;;;;14.47;9.53;;;11.40;96.60;;;;;;5053396;28;20629;-67
2021/03/02 07:11:30;;;;;;;18.53;10.10;;;11.90;94.90;;;;;;5053688;28;20357;-66
2021/03/02 07:13:57;;;;;;;12.40;9.10;;;12.30;94.80;;;;;;5053833;28;20226;-67
2021/03/02 07:16:25;;;;;;;16.00;10.37;;;12.90;93.00;;;;;;5053583;28;20258;-66
2021/03/02 07:18:51;;;;;;;17.77;11.47;;;13.40;92.60;;;;;;5053323;28;20229;-67
2021/03/02 07:21:18;;;;;;;16.20;9.30;;;14.10;91.50;;;;;;5053279;28;20209;-67
2021/03/02 07:23:45;;;;;;;14.77;9.93;;;14.70;90.30;;;;;;5052942;28;20316;-67
2021/03/02 07:26:13;;;;;;;13.83;9.47;;;15.40;87.30;;;;;;5053687;28;20214;-67
2021/03/02 07:28:41;;;;;;;16.20;10.17;;;15.90;85.80;;;;;;5053231;28;20202;-67
2021/03/02 07:31:09;;;;;;;14.37;9.40;;;16.60;82.30;;;;;;5053161;28;20599;-67
2021/03/02 07:33:40;;;;;;;14.87;9.67;;;16.90;79.00;;;;;;5052278;28;20701;-67
2021/03/02 07:36:07;;;;;;;15.30;10.47;;;17.10;77.40;;;;;;5053513;28;20210;-67
2021/03/02 07:38:33;;;;;;;15.53;11.47;;;17.20;76.10;;;;;;5053141;28;20226;-67
2021/03/02 07:40:59;;;;;;;14.27;11.03;;;17.30;74.90;;;;;;5053259;28;20217;-67
2021/03/02 07:43:31;;;;;;;18.77;10.90;;;16.90;74.90;;;;;;5052764;28;20267;-68
2021/03/02 07:45:59;;;;;;;20.60;10.67;;;16.00;76.40;;;;;;5052986;28;20612;-68
2021/03/02 07:48:30;;;;;;;14.07;10.90;;;14.80;79.60;;;;;;5052910;28;20217;-67
2021/03/02 07:51:17;;;;;;;15.97;10.90;;;13.60;83.50;;;;;;5053089;28;20569;-67
2021/03/02 07:53:44;;;;;;;17.07;11.03;;;12.30;88.10;;;;;;5052646;28;20240;-67
2021/03/02 07:56:25;;;;;;;17.57;10.80;;;11.10;91.10;;;;;;5052976;28;20206;-67
2021/03/02 07:59:17;;;;;;;14.60;11.23;;;10.10;93.50;;;;;;5052372;28;20931;-61
2021/03/02 08:01:44;;;;;;;15.57;11.60;;;9.10;97.10;;;;;;5052839;28;20224;-61
2021/03/02 08:04:26;;;;;;;15.27;11.50;;;8.50;98.80;;;;;;5052854;28;20226;-61
2021/03/02 08:07:14;;;;;;;19.50;12.83;;;8.20;99.90;;;;;;5052543;28;20239;-62
2021/03/02 08:09:40;;;;;;;17.40;11.90;;;8.00;99.90;;;;;;5052133;28;20216;-61
2021/03/02 08:12:27;;;;;;;18.40;12.13;;;8.00;99.90;;;;;;5052595;28;20206;-61
2021/03/02 08:14:53;;;;;;;22.33;12.77;;;8.00;99.90;;;;;;5052184;28;20210;-62
2021/03/02 08:17:20;;;;;;;16.87;12.33;;;8.10;99.90;;;;;;5052551;28;20287;-62
2021/03/02 08:19:48;;;;;;;15.03;12.13;;;8.00;99.90;;;;;;5052207;28;20251;-62
2021/03/02 08:22:47;;;;;;;20.73;13.33;;;8.00;99.90;;;;;;5051922;28;20338;-61
2021/03/02 08:25:28;;;;;;;19.97;13.67;;;7.90;99.90;;;;;;5052354;28;20205;-61
2021/03/02 08:28:00;;;;;;;21.33;13.37;;;7.90;99.90;;;;;;5051830;28;20212;-61
2021/03/02 08:30:29;;;;;;;20.03;12.30;;;8.10;99.90;;;;;;5052135;28;20240;-61
2021/03/02 08:32:56;;;;;;;17.13;11.93;;;8.30;99.90;;;;;;5051829;28;20240;-61
2021/03/02 08:35:25;;;;;;;18.63;14.00;;;8.40;99.90;;;;;;5051206;28;20443;-64
2021/03/02 08:37:54;;;;;;;18.50;12.73;;;8.50;99.90;;;;;;5051750;28;20689;-63
2021/03/02 08:40:22;;;;;;;19.00;12.47;;;8.50;99.90;;;;;;5052290;28;20301;-64
2021/03/02 08:43:03;;;;;;;19.57;13.43;;;8.30;99.90;;;;;;5052521;28;20229;-64
2021/03/02 08:45:30;;;;;;;19.43;12.37;;;8.20;99.90;;;;;;5053231;28;20201;-63
2021/03/02 08:48:16;;;;;;;17.80;12.27;;;8.20;99.90;;;;;;5052907;28;20206;-64
2021/03/02 08:50:43;;;;;;;20.07;13.07;;;8.20;99.90;;;;;;5055018;28;20205;-64
2021/03/02 08:53:35;;;;;;;17.70;11.67;;;8.30;99.90;;;;;;5077061;22;20233;-61
2021/03/02 08:56:03;;;;;;;19.70;12.40;;;8.30;99.90;;;;;;5051778;28;20300;-61
2021/03/02 08:58:31;;;;;;;17.20;12.13;;;8.40;99.90;;;;;;5051656;28;20741;-61
2021/03/02 09:01:03;;;;;;;18.50;12.73;;;8.50;99.90;;;;;;5051338;28;20201;-61
2021/03/02 09:03:30;;;;;;;18.67;12.23;;;8.70;99.90;;;;;;5051132;28;20221;-61
2021/03/02 09:06:18;;;;;;;18.30;12.67;;;8.80;99.90;;;;;;5051257;28;20209;-61
2021/03/02 09:08:48;;;;;;;18.53;12.73;;;9.00;99.90;;;;;;5051466;28;20216;-61
2021/03/02 09:11:16;;;;;;;17.67;12.57;;;9.10;99.90;;;;;;5051540;28;20216;-61
2021/03/02 09:13:43;;;;;;;17.83;11.97;;;9.30;99.90;;;;;;5051435;28;20230;-63
2021/03/02 09:16:40;;;;;;;15.00;11.57;;;9.30;99.90;;;;;;5051376;28;20232;-61
2021/03/02 09:19:19;;;;;;;18.97;11.63;;;9.30;99.90;;;;;;5017013;28;20225;-61
2021/03/02 09:21:58;;;;;;;19.47;12.73;;;9.40;99.90;;;;;;5051642;28;20217;-62
2021/03/02 09:24:27;;;;;;;18.60;12.03;;;9.60;99.90;;;;;;5051277;28;20622;-62
2021/03/02 09:26:57;;;;;;;18.83;12.90;;;9.70;99.90;;;;;;5051281;28;20209;-62
2021/03/02 09:29:25;;;;;;;17.17;11.53;;;9.90;99.90;;;;;;5050795;28;20231;-62
2021/03/02 09:31:52;;;;;;;17.37;11.67;;;10.10;99.80;;;;;;5050833;28;20206;-63
2021/03/02 09:34:19;;;;;;;14.83;11.57;;;10.30;99.60;;;;;;5050624;28;20225;-61
2021/03/02 09:36:45;;;;;;;16.57;11.70;;;10.40;99.30;;;;;;5051080;28;20588;-61
2021/03/02 09:39:24;;;;;;;16.87;11.53;;;10.50;98.90;;;;;;5050638;28;20225;-61
2021/03/02 09:41:51;;;;;;;16.70;11.70;;;10.50;98.60;;;;;;5051030;28;20212;-61
2021/03/02 09:44:29;;;;;;;15.90;11.63;;;10.60;98.50;;;;;;5050792;28;20232;-61
2021/03/02 09:46:58;;;;;;;15.93;11.60;;;10.70;98.40;;;;;;5051027;28;20216;-61
2021/03/02 09:49:44;;;;;;;17.20;12.82;;;10.90;98.20;;;;;;5047395;28;20645;-62
2021/03/02 09:52:35;;;;;;;16.77;11.40;;;11.00;97.80;;;;;;5050929;28;20217;-61
2021/03/02 09:55:27;;;;;;;16.07;11.00;;;11.00;97.70;;;;;;5050481;28;20232;-62
2021/03/02 09:58:12;;;;;;;18.53;11.70;;;11.20;97.40;;;;;;5054809;28;20217;-62
2021/03/02 10:00:46;;;;;;;16.47;11.97;;;11.40;97.20;;;;;;5055260;28;20247;-60
2021/03/02 10:03:15;;;;;;;17.73;12.00;;;11.60;96.90;;;;;;5055173;28;20236;-59
2021/03/02 10:05:44;;;;;;;17.30;12.07;;;11.80;96.50;;;;;;5054751;28;20689;-61
2021/03/02 10:08:34;;;;;;;14.57;11.10;;;11.80;96.20;;;;;;5054543;28;20697;-61
2021/03/02 10:11:03;;;;;;;16.70;11.00;;;12.00;95.70;;;;;;5050670;28;20307;-62
2021/03/02 10:13:32;;;;;;;14.93;11.00;;;12.10;95.60;;;;;;5054366;28;20723;-62
2021/03/02 10:16:16;;;;;;;16.00;11.07;;;12.20;95.40;;;;;;5054570;28;20699;-62
2021/03/02 10:18:47;;;;;;;13.50;10.33;;;12.40;95.30;;;;;;5054572;28;20228;-62
2021/03/02 10:21:13;;;;;;;16.07;10.00;;;12.40;94.90;;;;;;5054517;28;20213;-62
2021/03/02 10:23:41;;;;;;;16.20;10.70;;;12.50;94.80;;;;;;5054399;28;20225;-62
2021/03/02 10:26:08;;;;;;;15.10;11.03;;;12.50;94.60;;;;;;5054649;28;20230;-62
2021/03/02 10:28:36;;;;;;;15.77;10.57;;;12.50;94.40;;;;;;5054157;28;20205;-62
2021/03/02 10:31:03;;;;;;;15.27;10.47;;;12.60;94.30;;;;;;5054204;28;20237;-62
2021/03/02 10:33:29;;;;;;;17.90;11.13;;;12.60;94.40;;;;;;5054267;28;20221;-60
2021/03/02 10:35:56;;;;;;;14.43;10.83;;;12.80;94.40;;;;;;5055115;28;20677;-58
2021/03/02 10:38:22;;;;;;;15.90;10.73;;;13.10;94.20;;;;;;5054520;28;20251;-59
2021/03/02 10:40:49;;;;;;;16.90;11.03;;;13.30;93.50;;;;;;5053909;28;20700;-62
2021/03/02 10:43:15;;;;;;;13.43;10.63;;;13.40;93.00;;;;;;5054035;28;20229;-59
2021/03/02 10:45:42;;;;;;;15.60;10.93;;;13.60;92.60;;;;;;5053629;28;20259;-61
2021/03/02 10:48:09;;;;;;;14.83;10.73;;;13.70;92.40;;;;;;5054032;28;20197;-62
2021/03/02 10:50:35;;;;;;;12.00;9.67;;;13.80;92.20;;;;;;5053829;28;20274;-61
2021/03/02 10:53:01;;;;;;;15.20;10.37;;;14.00;91.50;;;;;;5057341;28;20236;-59
2021/03/02 10:55:28;;;;;;;13.47;9.70;;;14.00;91.30;;;;;;5073563;28;20220;-59
2021/03/02 10:57:54;;;;;;;15.03;10.13;;;13.90;91.20;;;;;;5073263;28;20254;-60
2021/03/02 11:00:20;;;;;;;16.97;10.40;;;13.70;91.20;;;;;;5073782;28;20561;-60
2021/03/02 11:02:47;;;;;;;12.67;9.33;;;13.60;91.20;;;;;;5074374;28;20209;-58
2021/03/02 11:05:15;;;;;;;11.57;8.50;;;13.60;90.70;;;;;;5073746;28;20266;-59
2021/03/02 11:07:41;;;;;;;14.70;9.83;;;13.80;90.40;;;;;;5072558;28;20212;-59
2021/03/02 11:10:08;;;;;;;13.50;9.50;;;13.90;89.90;;;;;;5073870;28;20204;-59
2021/03/02 11:12:35;;;;;;;18.10;10.07;;;14.10;90.20;;;;;;5073851;28;20213;-59
2021/03/02 11:15:01;;;;;;;14.30;9.90;;;14.20;90.00;;;;;;5073195;28;20204;-61
2021/03/02 11:17:27;;;;;;;12.67;9.83;;;14.40;90.00;;;;;;5073418;28;20209;-59
2021/03/02 11:19:54;;;;;;;14.87;10.37;;;14.50;89.80;;;;;;5073469;28;20212;-61
2021/03/02 11:22:21;;;;;;;14.73;9.87;;;14.70;89.00;;;;;;5073517;28;20209;-62
2021/03/02 11:24:47;;;;;;;13.93;10.17;;;14.90;88.30;;;;;;5073102;28;20770;-61
2021/03/02 11:27:13;;;;;;;15.73;10.50;;;15.00;87.70;;;;;;5073172;28;20223;-61
2021/03/02 11:29:40;;;;;;;14.37;10.20;;;15.00;87.10;;;;;;5073474;28;20567;-61
2021/03/02 11:32:06;;;;;;;14.27;10.00;;;15.20;86.70;;;;;;5073655;28;20240;-61
2021/03/02 11:34:34;;;;;;;15.20;10.40;;;15.30;85.90;;;;;;5073153;28;20239;-62
2021/03/02 11:37:01;;;;;;;16.60;10.27;;;15.40;85.50;;;;;;5073265;28;20208;-62
2021/03/02 11:39:27;;;;;;;12.43;10.13;;;15.30;85.30;;;;;;5072864;28;20707;-62
2021/03/02 11:41:53;;;;;;;12.17;9.60;;;15.30;85.20;;;;;;5073048;28;20200;-62
2021/03/02 11:44:20;;;;;;;14.60;9.63;;;15.40;84.80;;;;;;5072560;28;20229;-62
2021/03/02 11:46:46;;;;;;;12.93;9.83;;;15.50;83.80;;;;;;5073061;28;20209;-62
2021/03/02 11:49:12;;;;;;;12.10;9.40;;;15.60;84.40;;;;;;5072866;28;20205;-62
2021/03/02 11:51:39;;;;;;;13.07;9.20;;;15.60;83.40;;;;;;5072644;28;20209;-62
2021/03/02 11:54:06;;;;;;;11.50;9.07;;;15.60;81.50;;;;;;5072770;28;20236;-62
2021/03/02 11:56:32;;;;;;;12.00;9.67;;;15.40;81.80;;;;;;5073392;28;20201;-60
2021/03/02 11:58:58;;;;;;;14.07;10.23;;;15.50;84.30;;;;;;5072225;28;20225;-60
2021/03/02 12:01:24;;;;;;;13.60;10.30;;;15.60;85.40;;;;;;5072398;28;20209;-61
2021/03/02 12:03:51;;;;;;;14.00;10.30;;;15.70;83.70;;;;;;5072456;28;20250;-61
2021/03/02 12:06:17;;;;;;;13.37;10.20;;;15.70;83.20;;;;;;5072384;28;20208;-63
2021/03/02 12:08:43;;;;;;;15.73;10.43;;;15.80;83.50;;;;;;5072005;28;20209;-62
2021/03/02 12:11:10;;;;;;;16.13;11.20;;;15.70;84.40;;;;;;5072161;28;20208;-61
2021/03/02 12:13:36;;;;;;;15.63;9.73;;;15.60;84.00;;;;;;5072003;28;20231;-61
2021/03/02 12:16:02;;;;;;;16.77;10.20;;;15.80;83.40;;;;;;5072508;28;20244;-61
2021/03/02 12:18:29;;;;;;;13.53;10.50;;;15.90;82.50;;;;;;5071997;28;20248;-62
2021/03/02 12:20:55;;;;;;;15.03;10.20;;;16.20;82.00;;;;;;5072126;28;20239;-62
2021/03/02 12:23:21;;;;;;;17.77;11.10;;;16.30;81.50;;;;;;5072079;28;20282;-61
2021/03/02 12:25:47;;;;;;;14.63;10.20;;;16.30;80.60;;;;;;5071840;28;20212;-62
2021/03/02 12:28:14;;;;;;;18.37;10.17;;;16.30;80.70;;;;;;5072119;28;20205;-62
2021/03/02 12:30:40;;;;;;;15.27;10.20;;;16.30;78.80;;;;;;5072222;28;20231;-62
2021/03/02 12:33:07;;;;;;;11.30;9.30;;;16.40;78.60;;;;;;5072135;28;20224;-62
2021/03/02 12:35:33;;;;;;;14.80;10.70;;;16.50;79.20;;;;;;5072090;28;20205;-62
2021/03/02 12:38:01;;;;;;;14.60;10.47;;;16.60;79.80;;;;;;5072048;28;20605;-62
2021/03/02 12:40:27;;;;;;;13.23;10.00;;;16.50;79.60;;;;;;5071794;28;20283;-62
2021/03/02 12:42:53;;;;;;;12.73;9.40;;;16.40;79.40;;;;;;5071600;28;20708;-62
2021/03/02 12:45:20;;;;;;;13.83;9.77;;;16.60;79.10;;;;;;5071946;28;20204;-62
2021/03/02 12:47:47;;;;;;;12.27;9.50;;;16.70;78.50;;;;;;5071745;28;20205;-62
2021/03/02 12:50:13;;;;;;;13.63;10.00;;;16.80;77.60;;;;;;5071878;28;20200;-62
2021/03/02 12:52:41;;;;;;;14.07;9.67;;;16.90;77.10;;;;;;5071355;28;20205;-63